Time;durP1;ratioP1;P1;durP2;ratioP2;P2;SDS_P1;SDS_P2;PMS_P1;PMS_P2;Temp;Humidity;BMP_temperature;BMP_pressure;BME280_temperature;BME280_humidity;BME280_pressure;Samples;Min_cycle;Max_cycle;Signal;HPM_P1;HPM_P2
2022/07/04 00:00:38;;;;;;;4.72;2.40;;;19.20;99.90;;;;;;5003347;28;20053;-39
2022/07/04 00:03:05;;;;;;;2.60;2.40;;;19.10;99.90;;;;;;5007460;28;20387;-37
2022/07/04 00:05:31;;;;;;;2.70;2.50;;;19.10;99.90;;;;;;5010063;28;20046;-37
2022/07/04 00:07:57;;;;;;;2.95;2.50;;;19.00;99.90;;;;;;5009830;28;20029;-38
2022/07/04 00:10:22;;;;;;;2.80;2.30;;;18.90;99.90;;;;;;5008352;28;20053;-37
2022/07/04 00:12:49;;;;;;;2.72;2.45;;;19.10;99.90;;;;;;5011159;28;20022;-36
2022/07/04 00:15:15;;;;;;;3.17;2.60;;;19.20;99.90;;;;;;5010329;28;20105;-36
2022/07/04 00:17:42;;;;;;;2.50;2.30;;;19.10;99.90;;;;;;5007253;28;20034;-36
2022/07/04 00:20:09;;;;;;;2.50;2.30;;;19.10;99.90;;;;;;5024309;28;20030;-36
2022/07/04 00:22:36;;;;;;;2.28;2.17;;;18.80;99.90;;;;;;5028021;28;20134;-38
2022/07/04 00:25:02;;;;;;;3.65;2.20;;;18.90;99.90;;;;;;5006145;28;20026;-37
2022/07/04 00:27:28;;;;;;;2.88;2.50;;;19.00;99.90;;;;;;5003325;28;20037;-36
2022/07/04 00:29:55;;;;;;;2.60;2.40;;;19.20;99.90;;;;;;5008179;28;20033;-36
2022/07/04 00:32:21;;;;;;;6.32;2.60;;;19.20;99.90;;;;;;4991531;28;20054;-36
2022/07/04 00:34:47;;;;;;;2.70;2.50;;;19.20;99.90;;;;;;4995337;28;20026;-35
2022/07/04 00:37:13;;;;;;;2.85;2.60;;;19.20;99.90;;;;;;4995673;28;20054;-37
2022/07/04 00:39:39;;;;;;;2.40;2.30;;;19.20;99.90;;;;;;4981107;28;20061;-37
2022/07/04 00:42:06;;;;;;;2.55;2.10;;;19.20;99.90;;;;;;4995741;28;20113;-37
2022/07/04 00:44:36;;;;;;;2.63;2.42;;;19.30;99.90;;;;;;4995252;28;20100;-37
2022/07/04 00:47:05;;;;;;;2.65;2.45;;;19.20;99.90;;;;;;4992065;28;20038;-38
2022/07/04 00:49:32;;;;;;;2.22;2.08;;;19.30;99.90;;;;;;4997778;28;20045;-36
2022/07/04 00:51:59;;;;;;;2.35;2.15;;;19.40;99.90;;;;;;4996050;28;20100;-39
2022/07/04 00:54:30;;;;;;;3.28;2.70;;;19.10;99.90;;;;;;4979925;28;20045;-38
2022/07/04 00:56:58;;;;;;;2.58;2.33;;;18.90;99.90;;;;;;4993351;28;20034;-36
2022/07/04 00:59:24;;;;;;;2.67;2.47;;;18.90;99.90;;;;;;4994996;28;20042;-36
2022/07/04 01:01:51;;;;;;;3.53;2.35;;;18.90;99.90;;;;;;5003948;28;20088;-35
2022/07/04 01:04:17;;;;;;;2.85;2.55;;;18.90;99.90;;;;;;5010746;28;20032;-37
2022/07/04 01:06:47;;;;;;;2.50;2.30;;;18.80;99.90;;;;;;5009397;28;20035;-35
2022/07/04 01:09:13;;;;;;;2.22;2.08;;;18.80;99.90;;;;;;5006885;28;20036;-37
2022/07/04 01:11:39;;;;;;;2.25;2.15;;;18.80;99.90;;;;;;5011089;28;20026;-35
2022/07/04 01:14:06;;;;;;;2.75;2.40;;;18.80;99.90;;;;;;5003017;28;20149;-36
2022/07/04 01:16:33;;;;;;;4.15;2.65;;;18.70;99.90;;;;;;5007610;28;20088;-37
2022/07/04 01:18:59;;;;;;;2.40;2.25;;;18.60;99.90;;;;;;4993213;28;20026;-36
2022/07/04 01:21:25;;;;;;;3.53;2.55;;;18.50;99.90;;;;;;5008082;28;20069;-35
2022/07/04 01:23:51;;;;;;;3.55;2.60;;;18.60;99.90;;;;;;5006425;28;20036;-37
2022/07/04 01:26:17;;;;;;;2.95;2.50;;;18.60;99.90;;;;;;5008110;28;20076;-37
2022/07/04 01:28:44;;;;;;;2.50;2.30;;;18.70;99.90;;;;;;5011547;28;20489;-37
2022/07/04 01:31:11;;;;;;;2.47;2.28;;;18.70;99.90;;;;;;5005994;28;20029;-37
2022/07/04 01:33:36;;;;;;;3.30;2.47;;;18.80;99.90;;;;;;5009007;28;20398;-39
2022/07/04 01:36:02;;;;;;;2.47;2.28;;;18.80;99.90;;;;;;5008635;28;20125;-39
2022/07/04 01:38:28;;;;;;;2.58;2.38;;;18.80;99.90;;;;;;5009129;28;20383;-36
2022/07/04 01:40:54;;;;;;;2.70;2.50;;;18.80;99.90;;;;;;5011253;28;20042;-36
2022/07/04 01:43:20;;;;;;;4.57;2.78;;;18.90;99.90;;;;;;5013330;28;20022;-37
2022/07/04 01:45:47;;;;;;;3.10;2.50;;;18.90;99.90;;;;;;5004612;28;20108;-36
2022/07/04 01:48:13;;;;;;;2.80;2.60;;;18.90;99.90;;;;;;5008035;28;20040;-38
2022/07/04 01:50:39;;;;;;;4.22;2.70;;;18.90;99.90;;;;;;5004933;28;20026;-36
2022/07/04 01:53:06;;;;;;;3.47;2.53;;;18.90;99.90;;;;;;5010583;28;20107;-37
2022/07/04 01:55:32;;;;;;;2.90;2.70;;;18.90;99.90;;;;;;5003815;28;20026;-37
2022/07/04 01:58:00;;;;;;;2.60;2.40;;;18.90;99.90;;;;;;5008483;28;20056;-37
2022/07/04 02:03:12;;;;;;;2.97;2.63;;;18.80;99.90;;;;;;5009110;28;20048;-35
2022/07/04 02:05:38;;;;;;;2.85;2.60;;;18.80;99.90;;;;;;4997333;28;20403;-39
2022/07/04 02:08:05;;;;;;;2.83;2.22;;;18.80;99.90;;;;;;4995809;28;20053;-38
2022/07/04 02:10:31;;;;;;;2.90;2.60;;;18.60;99.90;;;;;;5007632;28;20104;-37
2022/07/04 02:13:04;;;;;;;3.80;2.72;;;18.70;99.90;;;;;;5006533;28;20022;-37
2022/07/04 02:15:35;;;;;;;3.20;2.67;;;18.60;99.90;;;;;;5005787;28;20037;-36
2022/07/04 02:18:03;;;;;;;2.40;2.30;;;18.60;99.90;;;;;;5006721;28;20617;-39
2022/07/04 02:20:29;;;;;;;2.80;2.60;;;18.70;99.90;;;;;;5003358;28;20049;-36
2022/07/04 02:22:55;;;;;;;4.22;2.40;;;18.60;99.90;;;;;;4997957;28;20121;-36
2022/07/04 02:25:22;;;;;;;2.22;2.13;;;18.60;99.90;;;;;;4989047;28;20518;-37
2022/07/04 02:27:47;;;;;;;2.85;2.30;;;18.60;99.90;;;;;;5003337;28;20095;-38
2022/07/04 02:30:13;;;;;;;4.18;2.55;;;18.60;99.90;;;;;;5004402;28;20053;-35
2022/07/04 02:32:40;;;;;;;2.55;2.35;;;18.60;99.90;;;;;;5015323;28;20018;-36
2022/07/04 02:35:07;;;;;;;2.70;2.50;;;18.60;99.90;;;;;;5007341;28;20045;-38
2022/07/04 02:37:33;;;;;;;2.57;2.37;;;18.60;99.90;;;;;;5007861;28;20033;-40
2022/07/04 02:39:59;;;;;;;2.70;2.50;;;18.70;99.90;;;;;;5007655;28;20479;-39
2022/07/04 02:42:29;;;;;;;3.05;2.80;;;18.70;99.90;;;;;;5006482;28;20061;-38
2022/07/04 02:44:56;;;;;;;4.55;2.65;;;18.30;99.90;;;;;;5004492;28;20045;-37
2022/07/04 02:47:22;;;;;;;3.10;2.60;;;18.10;99.90;;;;;;5004275;28;20030;-36
2022/07/04 02:49:48;;;;;;;3.88;2.72;;;18.00;99.90;;;;;;5009190;28;20076;-36
2022/07/04 02:52:15;;;;;;;3.42;2.30;;;18.10;99.90;;;;;;5008260;28;20022;-37
2022/07/04 02:54:41;;;;;;;2.70;2.50;;;18.10;99.90;;;;;;4999021;28;20081;-36
2022/07/04 02:57:07;;;;;;;6.53;2.42;;;18.00;99.90;;;;;;5008970;28;20127;-35
2022/07/04 02:59:33;;;;;;;2.63;2.50;;;18.10;99.90;;;;;;5007568;28;20030;-36
2022/07/04 03:02:00;;;;;;;3.53;2.72;;;18.10;99.90;;;;;;5011720;28;20111;-37
2022/07/04 03:04:26;;;;;;;4.30;2.67;;;18.30;99.90;;;;;;4998915;28;20034;-39
2022/07/04 03:06:52;;;;;;;2.60;2.40;;;18.20;99.90;;;;;;5009317;28;20036;-38
2022/07/04 03:09:18;;;;;;;2.78;2.55;;;18.30;99.90;;;;;;5013503;28;20026;-36
2022/07/04 03:11:45;;;;;;;4.60;2.40;;;18.30;99.90;;;;;;5008225;28;20033;-36
2022/07/04 03:14:11;;;;;;;3.05;2.55;;;18.30;99.90;;;;;;5009286;28;20030;-35
2022/07/04 03:16:37;;;;;;;2.90;2.70;;;18.30;99.90;;;;;;5009899;28;20033;-36
2022/07/04 03:19:03;;;;;;;4.72;2.90;;;18.20;99.90;;;;;;5008929;28;20026;-36
2022/07/04 03:21:30;;;;;;;5.07;3.05;;;18.20;99.90;;;;;;5005678;28;20038;-38
2022/07/04 03:23:59;;;;;;;5.07;2.78;;;17.90;99.90;;;;;;5011725;28;20031;-36
2022/07/04 03:26:26;;;;;;;3.33;2.67;;;18.00;99.90;;;;;;5020283;28;20041;-36
2022/07/04 03:28:52;;;;;;;3.78;2.70;;;18.00;99.90;;;;;;5004350;28;20109;-36
2022/07/04 03:31:19;;;;;;;4.55;3.25;;;17.90;99.90;;;;;;4994656;28;20403;-36
2022/07/04 03:33:44;;;;;;;3.38;2.95;;;17.70;99.90;;;;;;5005410;28;20026;-37
2022/07/04 03:36:11;;;;;;;3.42;2.53;;;17.60;99.90;;;;;;5005265;28;20084;-38
2022/07/04 03:38:37;;;;;;;3.10;2.80;;;17.70;99.90;;;;;;5009146;28;20041;-37
2022/07/04 03:41:03;;;;;;;4.50;3.20;;;17.80;99.90;;;;;;5012218;28;20426;-38
2022/07/04 03:43:29;;;;;;;3.20;2.90;;;17.90;99.90;;;;;;5005947;28;20438;-36
2022/07/04 03:45:55;;;;;;;3.60;2.85;;;17.90;99.90;;;;;;5006209;28;20033;-37
2022/07/04 03:48:21;;;;;;;3.72;2.97;;;18.00;99.90;;;;;;5007646;28;20060;-39
2022/07/04 03:50:47;;;;;;;4.22;2.88;;;18.00;99.90;;;;;;5008332;28;20033;-36
2022/07/04 03:53:15;;;;;;;3.65;3.30;;;18.00;99.90;;;;;;5009139;28;20030;-36
2022/07/04 03:55:41;;;;;;;4.88;3.00;;;18.00;99.90;;;;;;5009089;28;20026;-40
2022/07/04 03:58:07;;;;;;;3.67;3.22;;;18.00;99.90;;;;;;5005675;28;20052;-36
2022/07/04 04:00:34;;;;;;;4.45;3.25;;;18.10;99.90;;;;;;5004541;28;20081;-36
2022/07/04 04:03:00;;;;;;;3.65;2.90;;;18.00;99.90;;;;;;5007216;28;20204;-39
2022/07/04 04:05:26;;;;;;;5.72;2.88;;;18.00;99.90;;;;;;5003942;28;20045;-37
2022/07/04 04:07:54;;;;;;;4.50;2.88;;;18.10;99.90;;;;;;5010164;28;20060;-37
2022/07/04 04:10:20;;;;;;;4.03;3.30;;;18.30;99.90;;;;;;5004291;28;20022;-39
2022/07/04 04:12:47;;;;;;;3.97;3.13;;;18.10;99.90;;;;;;5004318;28;20087;-38
2022/07/04 04:15:13;;;;;;;5.60;2.90;;;17.90;99.90;;;;;;5005238;28;20034;-39
2022/07/04 04:17:39;;;;;;;3.67;3.15;;;17.90;99.90;;;;;;5022676;28;20034;-37
2022/07/04 04:20:05;;;;;;;5.43;3.50;;;18.00;99.90;;;;;;5003252;28;20041;-36
2022/07/04 04:22:31;;;;;;;4.47;3.30;;;18.00;99.90;;;;;;5006051;28;20638;-37
2022/07/04 04:24:57;;;;;;;3.50;3.20;;;18.00;99.90;;;;;;5023798;28;20038;-37
2022/07/04 04:27:24;;;;;;;3.55;3.15;;;18.10;99.90;;;;;;5013060;28;20065;-35
2022/07/04 04:29:50;;;;;;;3.92;3.05;;;18.10;99.90;;;;;;5004805;28;20041;-36
2022/07/04 04:32:16;;;;;;;5.05;3.38;;;18.10;99.90;;;;;;5020894;28;20791;-37
2022/07/04 04:34:42;;;;;;;3.85;3.33;;;18.20;99.90;;;;;;5005018;28;20031;-36
2022/07/04 04:37:07;;;;;;;4.55;3.40;;;18.20;99.90;;;;;;5008471;28;20030;-36
2022/07/04 04:39:34;;;;;;;4.03;2.97;;;18.20;99.90;;;;;;5005344;28;20090;-37
2022/07/04 04:42:00;;;;;;;4.07;3.08;;;18.20;99.90;;;;;;5006532;28;20571;-36
2022/07/04 04:44:26;;;;;;;4.35;3.67;;;18.30;99.90;;;;;;5006308;28;20036;-36
2022/07/04 04:46:52;;;;;;;3.83;3.53;;;18.40;99.90;;;;;;5009776;28;20041;-39
2022/07/04 04:49:18;;;;;;;3.67;3.38;;;18.40;99.90;;;;;;5003838;28;20121;-36
2022/07/04 04:51:45;;;;;;;3.90;3.60;;;18.50;99.90;;;;;;5007706;28;20026;-37
2022/07/04 04:54:11;;;;;;;5.20;3.80;;;18.50;99.90;;;;;;5012582;28;20137;-39
2022/07/04 04:56:37;;;;;;;8.48;3.60;;;18.60;99.90;;;;;;5006055;28;20027;-37
2022/07/04 04:59:03;;;;;;;3.92;3.40;;;18.70;99.90;;;;;;5010768;28;20073;-38
2022/07/04 05:01:29;;;;;;;3.63;3.00;;;18.80;99.90;;;;;;5007962;28;20376;-37
2022/07/04 05:03:56;;;;;;;4.25;3.47;;;18.70;99.90;;;;;;5009403;28;20022;-38
2022/07/04 05:06:21;;;;;;;5.10;3.80;;;18.70;99.90;;;;;;5012176;28;20021;-38
2022/07/04 05:08:48;;;;;;;3.47;3.10;;;18.80;99.90;;;;;;5010623;28;20102;-37
2022/07/04 05:11:14;;;;;;;3.50;3.20;;;18.90;99.90;;;;;;5007356;28;20080;-36
2022/07/04 05:13:40;;;;;;;4.40;3.17;;;18.90;99.90;;;;;;4998528;28;20077;-36
2022/07/04 05:16:06;;;;;;;3.50;3.13;;;18.90;99.90;;;;;;5010630;28;20379;-38
2022/07/04 05:18:32;;;;;;;3.45;3.08;;;18.90;99.90;;;;;;5010054;28;20037;-36
2022/07/04 05:20:58;;;;;;;3.50;3.15;;;18.90;99.90;;;;;;5013344;28;20034;-36
2022/07/04 05:23:25;;;;;;;4.20;3.08;;;19.00;99.90;;;;;;5007998;28;20188;-38
2022/07/04 05:25:50;;;;;;;4.28;3.25;;;18.90;99.90;;;;;;5015212;28;20104;-38
2022/07/04 05:28:17;;;;;;;3.53;3.00;;;19.00;99.90;;;;;;5006529;28;20038;-38
2022/07/04 05:30:43;;;;;;;3.25;2.95;;;19.00;99.90;;;;;;5005470;28;20522;-36
2022/07/04 05:33:09;;;;;;;3.58;3.10;;;19.00;99.90;;;;;;5007671;28;20022;-39
2022/07/04 05:35:35;;;;;;;3.78;3.47;;;19.00;99.90;;;;;;5012860;28;20770;-37
2022/07/04 05:38:01;;;;;;;3.30;3.00;;;19.10;99.90;;;;;;5009128;28;20030;-38
2022/07/04 05:40:28;;;;;;;3.78;2.90;;;19.10;99.90;;;;;;5005165;28;20030;-37
2022/07/04 05:42:54;;;;;;;6.32;3.10;;;19.10;99.90;;;;;;5014847;28;20033;-38
2022/07/04 05:45:20;;;;;;;3.40;3.10;;;19.10;99.90;;;;;;5004383;28;20088;-37
2022/07/04 05:47:46;;;;;;;3.67;3.15;;;19.10;99.90;;;;;;5009660;28;20049;-38
2022/07/04 05:50:12;;;;;;;3.40;3.10;;;19.20;99.90;;;;;;5023326;28;20089;-36
2022/07/04 05:52:38;;;;;;;3.30;3.00;;;19.30;99.90;;;;;;5012551;28;20061;-36
2022/07/04 05:55:06;;;;;;;4.15;3.10;;;19.30;99.90;;;;;;5011262;28;20057;-37
2022/07/04 05:57:32;;;;;;;4.00;3.30;;;19.30;99.90;;;;;;5008786;28;20489;-36
2022/07/04 05:59:58;;;;;;;4.70;2.90;;;19.30;99.90;;;;;;5009405;28;20038;-37
2022/07/04 06:02:24;;;;;;;3.85;3.40;;;19.40;99.90;;;;;;5008574;28;20073;-38
2022/07/04 06:04:50;;;;;;;3.53;3.22;;;19.40;99.90;;;;;;5012391;28;20034;-36
2022/07/04 06:07:17;;;;;;;4.22;3.15;;;19.40;99.90;;;;;;5006305;28;20030;-36
2022/07/04 06:09:44;;;;;;;4.43;3.13;;;19.40;99.90;;;;;;5011461;28;20021;-39
2022/07/04 06:12:09;;;;;;;3.55;3.13;;;19.40;99.90;;;;;;5009631;28;20085;-38
2022/07/04 06:14:35;;;;;;;3.30;3.00;;;19.50;99.90;;;;;;5010318;28;20034;-36
2022/07/04 06:17:01;;;;;;;4.75;3.10;;;19.50;99.90;;;;;;5010337;28;20034;-36
2022/07/04 06:19:28;;;;;;;4.28;2.97;;;19.60;99.90;;;;;;5009238;28;20038;-38
2022/07/04 06:21:53;;;;;;;5.97;3.00;;;19.70;99.90;;;;;;5005146;28;20026;-36
2022/07/04 06:24:19;;;;;;;3.97;3.05;;;19.70;99.90;;;;;;5008786;28;20022;-38
2022/07/04 06:26:45;;;;;;;3.28;2.97;;;19.80;99.90;;;;;;5008086;28;20041;-37
2022/07/04 06:29:11;;;;;;;3.30;2.97;;;19.90;99.90;;;;;;5008877;28;20018;-39
2022/07/04 06:31:37;;;;;;;4.10;2.65;;;19.90;99.90;;;;;;5010611;28;20030;-37
2022/07/04 06:36:48;;;;;;;2.90;2.70;;;20.10;99.90;;;;;;5011509;28;20137;-37
2022/07/04 06:39:15;;;;;;;4.43;2.50;;;20.20;99.90;;;;;;5009037;28;20380;-37
2022/07/04 06:41:40;;;;;;;2.92;2.60;;;20.30;99.90;;;;;;4997165;28;20034;-37
2022/07/04 06:44:06;;;;;;;3.10;2.70;;;20.30;99.90;;;;;;4998813;28;20041;-36
2022/07/04 06:46:31;;;;;;;5.13;2.78;;;20.30;99.90;;;;;;4995702;28;20133;-39
2022/07/04 06:48:57;;;;;;;2.67;2.35;;;20.20;99.90;;;;;;4993450;28;20034;-40
2022/07/04 06:51:23;;;;;;;3.00;2.25;;;20.20;99.90;;;;;;4992550;28;20204;-39
2022/07/04 06:53:50;;;;;;;2.70;2.50;;;20.20;99.90;;;;;;4997969;28;20026;-37
2022/07/04 06:56:16;;;;;;;2.63;2.33;;;20.20;99.90;;;;;;4992858;28;20439;-39
2022/07/04 06:58:42;;;;;;;3.10;2.80;;;20.30;99.90;;;;;;4999266;28;20103;-39
2022/07/04 07:01:07;;;;;;;3.60;2.45;;;20.20;99.90;;;;;;4993566;28;20033;-40
2022/07/04 07:03:33;;;;;;;3.05;2.50;;;20.20;99.90;;;;;;4989233;28;20037;-38
2022/07/04 07:05:59;;;;;;;4.32;2.83;;;20.20;99.90;;;;;;5000992;28;20065;-37
2022/07/04 07:08:24;;;;;;;3.22;2.92;;;20.30;99.90;;;;;;4997652;28;20038;-39
2022/07/04 07:10:50;;;;;;;3.58;2.58;;;20.30;99.90;;;;;;4997256;28;20018;-39
2022/07/04 07:15:51;;;;;;;2.88;2.42;;;20.20;99.90;;;;;;5291029;23;20534;-36
2022/07/04 07:18:17;;;;;;;5.10;2.60;;;20.10;99.90;;;;;;4952889;28;20057;-38
2022/07/04 07:20:42;;;;;;;2.28;2.08;;;20.10;99.90;;;;;;4970788;28;20026;-37
2022/07/04 07:23:08;;;;;;;3.17;2.13;;;20.20;99.90;;;;;;4965749;28;20038;-35
2022/07/04 07:25:34;;;;;;;4.03;2.47;;;20.20;99.90;;;;;;4972576;28;20039;-38
2022/07/04 07:28:00;;;;;;;2.55;2.35;;;20.30;99.90;;;;;;4969748;28;20039;-37
2022/07/04 07:30:26;;;;;;;4.05;2.50;;;20.30;99.90;;;;;;4970699;28;20077;-38
2022/07/04 07:32:51;;;;;;;3.55;2.65;;;20.40;99.90;;;;;;4949692;28;20098;-36
2022/07/04 07:35:17;;;;;;;7.22;3.20;;;20.50;99.90;;;;;;4968257;28;20027;-36
2022/07/04 07:37:42;;;;;;;3.25;2.53;;;20.60;99.90;;;;;;4973897;28;20038;-35
2022/07/04 07:40:08;;;;;;;2.70;2.50;;;20.70;99.90;;;;;;4970240;28;20027;-38
2022/07/04 07:42:35;;;;;;;3.97;2.53;;;20.70;99.90;;;;;;4971083;28;20117;-37
2022/07/04 07:45:01;;;;;;;2.88;2.33;;;20.80;99.90;;;;;;4971420;28;20062;-35
2022/07/04 07:47:26;;;;;;;2.60;2.40;;;20.80;99.90;;;;;;4972677;28;20491;-37
2022/07/04 07:49:52;;;;;;;3.45;2.70;;;20.70;99.90;;;;;;4971297;28;20034;-35
2022/07/04 07:52:18;;;;;;;4.18;2.30;;;20.70;99.90;;;;;;4969849;28;20105;-37
2022/07/04 07:54:43;;;;;;;3.10;2.60;;;20.70;99.90;;;;;;4971622;28;20479;-35
2022/07/04 07:57:09;;;;;;;3.20;2.60;;;20.60;99.90;;;;;;4972930;28;20027;-35
2022/07/04 07:59:35;;;;;;;5.75;2.63;;;20.50;99.90;;;;;;4972594;28;20035;-37
2022/07/04 08:02:00;;;;;;;4.05;2.83;;;20.60;99.90;;;;;;4971008;28;20046;-38
2022/07/04 08:04:35;;;;;;;3.67;2.53;;;20.70;99.90;;;;;;4972524;28;20030;-35
2022/07/04 08:07:05;;;;;;;2.90;2.70;;;20.90;99.90;;;;;;4972606;28;20122;-38
2022/07/04 08:09:32;;;;;;;2.97;2.00;;;20.80;99.90;;;;;;4972821;28;20042;-35
2022/07/04 08:11:58;;;;;;;2.53;2.33;;;21.10;99.90;;;;;;4972375;28;20510;-37
2022/07/04 08:14:24;;;;;;;4.20;2.17;;;21.40;99.90;;;;;;4972231;28;20031;-35
2022/07/04 08:16:50;;;;;;;2.38;2.17;;;21.60;99.90;;;;;;4970062;28;20030;-35
2022/07/04 08:19:15;;;;;;;2.92;2.30;;;21.70;99.90;;;;;;4972869;28;20042;-37
2022/07/04 08:21:41;;;;;;;3.10;2.38;;;21.90;99.90;;;;;;4976057;28;20035;-38
2022/07/04 08:24:07;;;;;;;4.07;2.70;;;22.20;99.90;;;;;;4971865;28;20035;-37
2022/07/04 08:26:33;;;;;;;2.58;2.38;;;22.20;99.90;;;;;;4972705;28;20495;-37
2022/07/04 08:28:59;;;;;;;2.40;2.20;;;22.50;99.50;;;;;;4974250;28;20023;-34
2022/07/04 08:31:26;;;;;;;4.72;2.50;;;22.70;99.70;;;;;;4970667;28;20062;-35
2022/07/04 08:33:52;;;;;;;3.10;2.28;;;22.70;99.90;;;;;;4974976;28;20038;-36
2022/07/04 08:36:18;;;;;;;5.15;2.30;;;22.90;99.90;;;;;;4971063;28;20427;-37
2022/07/04 08:38:44;;;;;;;3.65;2.38;;;23.10;99.10;;;;;;4975535;28;20034;-36
2022/07/04 08:41:10;;;;;;;2.42;2.10;;;23.10;95.60;;;;;;4972894;28;20114;-38
2022/07/04 08:43:36;;;;;;;2.83;2.13;;;23.30;99.00;;;;;;4978704;28;20062;-35
2022/07/04 08:46:06;;;;;;;2.00;1.90;;;23.50;98.00;;;;;;4980134;28;20027;-35
2022/07/04 08:48:33;;;;;;;2.60;2.40;;;23.40;97.30;;;;;;4980391;28;20034;-37
2022/07/04 08:51:15;;;;;;;2.22;2.10;;;23.40;97.30;;;;;;4980676;28;20070;-38
2022/07/04 08:53:50;;;;;;;2.40;1.98;;;23.60;96.40;;;;;;4978885;28;20023;-34
2022/07/04 08:59:01;;;;;;;1.95;1.85;;;23.90;94.90;;;;;;4986559;28;20056;-34
2022/07/04 09:01:28;;;;;;;2.35;2.15;;;23.70;94.80;;;;;;4980522;28;20039;-36
2022/07/04 09:03:55;;;;;;;2.45;2.22;;;23.90;92.30;;;;;;4985009;28;20019;-37
2022/07/04 09:06:21;;;;;;;2.65;2.15;;;24.10;93.90;;;;;;4983823;28;20027;-34
2022/07/04 09:08:47;;;;;;;2.70;2.10;;;24.50;92.80;;;;;;4983316;28;20027;-36
2022/07/04 09:11:12;;;;;;;2.40;2.20;;;24.40;91.40;;;;;;4976574;28;20031;-35
2022/07/04 09:13:38;;;;;;;4.50;1.80;;;24.60;91.60;;;;;;4983268;28;20053;-34
2022/07/04 09:16:04;;;;;;;3.75;2.22;;;24.40;88.50;;;;;;4986198;28;20530;-34
2022/07/04 09:18:36;;;;;;;3.38;2.22;;;24.50;92.50;;;;;;4964444;28;20069;-34
2022/07/04 09:21:07;;;;;;;3.78;2.40;;;24.70;89.50;;;;;;4982284;28;20030;-35
2022/07/04 09:23:35;;;;;;;2.30;2.10;;;24.70;87.00;;;;;;4981915;28;20057;-34
2022/07/04 09:26:18;;;;;;;4.13;2.05;;;24.70;83.40;;;;;;4989413;28;20023;-35
2022/07/04 09:29:04;;;;;;;2.33;2.00;;;25.20;90.50;;;;;;4981916;28;20035;-35
2022/07/04 09:31:31;;;;;;;2.35;2.20;;;25.30;86.20;;;;;;4979178;28;20027;-35
2022/07/04 09:33:59;;;;;;;2.17;1.98;;;25.50;90.00;;;;;;4981535;28;20380;-35
2022/07/04 09:36:25;;;;;;;;;;;25.70;84.30;;;;;;4983913;28;20035;-37
2022/07/04 09:39:14;;;;;;;2.40;2.00;;;25.70;75.40;;;;;;4977970;28;19984;-36
2022/07/04 09:41:58;;;;;;;2.85;1.88;;;25.10;77.00;;;;;;4980109;28;20445;-35
2022/07/04 09:44:28;;;;;;;2.55;1.83;;;25.00;78.10;;;;;;4983347;28;20050;-34
2022/07/04 09:46:54;;;;;;;4.47;2.10;;;24.70;86.10;;;;;;4975982;28;20441;-34
2022/07/04 09:49:20;;;;;;;1.73;1.63;;;25.00;77.90;;;;;;4983426;28;20551;-35
2022/07/04 09:51:51;;;;;;;3.30;1.58;;;25.10;73.90;;;;;;4982803;28;20031;-33
2022/07/04 09:54:32;;;;;;;1.70;1.60;;;25.00;76.80;;;;;;4982749;28;20038;-35
2022/07/04 09:57:00;;;;;;;2.00;1.70;;;24.90;82.40;;;;;;4980511;28;20036;-36
2022/07/04 09:59:27;;;;;;;1.77;1.67;;;24.50;76.60;;;;;;4981967;28;20031;-35
2022/07/04 10:02:10;;;;;;;2.30;1.63;;;24.20;79.10;;;;;;4983045;28;20050;-33
2022/07/04 10:04:52;;;;;;;1.98;1.88;;;24.10;83.30;;;;;;4979365;28;20035;-34
2022/07/04 10:07:40;;;;;;;1.77;1.65;;;24.10;83.80;;;;;;4980137;28;20046;-34
2022/07/04 10:10:28;;;;;;;2.00;1.90;;;24.20;84.10;;;;;;4982610;28;20038;-35
2022/07/04 10:12:59;;;;;;;2.50;1.98;;;24.20;80.10;;;;;;4977524;28;20026;-33
2022/07/04 10:15:25;;;;;;;2.08;1.80;;;24.40;85.70;;;;;;4982639;28;20518;-34
2022/07/04 10:17:51;;;;;;;3.92;2.00;;;24.40;82.80;;;;;;4981732;28;20023;-35
2022/07/04 10:20:17;;;;;;;1.70;1.60;;;24.30;81.80;;;;;;4979812;28;20037;-34
2022/07/04 10:22:43;;;;;;;2.75;1.80;;;24.40;81.10;;;;;;4980570;28;20035;-33
2022/07/04 10:25:09;;;;;;;1.80;1.70;;;24.60;84.90;;;;;;4974187;28;20038;-34
2022/07/04 10:27:36;;;;;;;1.83;1.58;;;25.00;85.40;;;;;;4980774;28;20509;-34
2022/07/04 10:30:06;;;;;;;2.28;1.65;;;24.80;77.10;;;;;;4979532;28;20019;-33
2022/07/04 10:32:32;;;;;;;1.80;1.50;;;25.10;79.90;;;;;;4974437;28;20093;-35
2022/07/04 10:34:58;;;;;;;1.70;1.35;;;25.60;69.90;;;;;;4984312;28;20033;-35
2022/07/04 10:37:24;;;;;;;1.52;1.42;;;25.10;69.70;;;;;;4981737;28;20038;-36
2022/07/04 10:39:49;;;;;;;2.15;1.88;;;24.70;68.10;;;;;;4981005;28;20030;-34
2022/07/04 10:42:25;;;;;;;1.80;1.70;;;24.80;75.40;;;;;;4982664;28;20066;-33
2022/07/04 10:44:52;;;;;;;1.98;1.60;;;25.10;67.40;;;;;;4974971;28;20030;-34
2022/07/04 10:47:24;;;;;;;3.27;1.57;;;24.80;69.10;;;;;;4979877;28;20074;-36
2022/07/04 10:49:51;;;;;;;1.70;1.60;;;24.90;68.10;;;;;;4980217;28;20077;-36
2022/07/04 10:52:17;;;;;;;1.90;1.80;;;25.00;73.20;;;;;;4986068;28;20456;-36
2022/07/04 10:54:44;;;;;;;1.85;1.70;;;25.30;78.30;;;;;;4981535;28;20031;-33
2022/07/04 10:57:16;;;;;;;1.40;1.40;;;25.50;77.50;;;;;;4981876;28;20058;-36
2022/07/04 11:00:01;;;;;;;1.70;1.60;;;25.20;68.60;;;;;;4981978;28;20038;-35
2022/07/04 11:02:31;;;;;;;1.50;1.38;;;25.20;74.40;;;;;;4980468;28;20487;-36
2022/07/04 11:05:05;;;;;;;2.33;1.60;;;25.10;65.80;;;;;;4981082;28;20361;-34
2022/07/04 11:07:36;;;;;;;2.95;1.88;;;25.00;74.10;;;;;;4986698;28;20447;-36
2022/07/04 11:10:11;;;;;;;2.53;1.85;;;24.80;69.70;;;;;;4981728;28;20031;-34
2022/07/04 11:12:55;;;;;;;2.55;2.10;;;25.00;71.60;;;;;;4976606;28;20031;-34
2022/07/04 11:15:33;;;;;;;2.25;1.65;;;25.00;70.30;;;;;;4977954;28;20045;-35
2022/07/04 11:18:03;;;;;;;;;;;25.00;70.10;;;;;;4979873;28;20038;-36
2022/07/04 11:20:30;;;;;;;3.63;1.73;;;25.10;70.10;;;;;;4980474;28;20283;-37
2022/07/04 11:23:16;;;;;;;;;;;25.10;76.30;;;;;;4979784;28;20038;-37
2022/07/04 11:25:44;;;;;;;3.25;1.63;;;25.30;66.30;;;;;;4981925;28;19910;-34
2022/07/04 11:28:28;;;;;;;1.88;1.67;;;25.60;73.60;;;;;;4980263;28;20049;-34
2022/07/04 11:31:00;;;;;;;2.13;1.77;;;25.70;70.20;;;;;;4976095;28;20490;-36
2022/07/04 11:33:29;;;;;;;2.00;1.90;;;26.00;71.90;;;;;;4979317;28;20472;-37
2022/07/04 11:36:04;;;;;;;2.15;1.90;;;25.90;66.30;;;;;;4975465;28;20081;-34
2022/07/04 11:38:57;;;;;;;2.22;2.00;;;25.70;65.80;;;;;;4973342;28;20455;-34
2022/07/04 11:47:02;;;;;;;2.10;2.00;;;25.20;70.10;;;;;;4982234;28;20006;-37
2022/07/04 11:49:27;;;;;;;1.90;1.80;;;25.10;69.00;;;;;;4958604;28;20495;-34
2022/07/04 11:51:55;;;;;;;2.35;1.60;;;24.90;67.30;;;;;;4978520;28;20106;-36
2022/07/04 11:54:21;;;;;;;2.20;2.00;;;24.90;65.70;;;;;;4973982;28;20480;-35
2022/07/04 11:56:47;;;;;;;2.05;1.90;;;24.80;68.80;;;;;;4975367;28;20023;-36
2022/07/04 11:59:16;;;;;;;2.60;1.85;;;25.00;70.10;;;;;;4974749;28;20448;-35
2022/07/04 12:01:43;;;;;;;1.83;1.73;;;25.30;68.60;;;;;;4978795;28;20097;-37
2022/07/04 12:04:19;;;;;;;2.60;1.60;;;25.70;69.60;;;;;;4959896;28;20149;-36
2022/07/04 12:06:47;;;;;;;2.67;1.70;;;25.80;62.50;;;;;;4974350;28;20322;-37
2022/07/04 12:09:16;;;;;;;3.35;2.08;;;26.00;63.30;;;;;;4975368;28;20043;-35
2022/07/04 12:11:56;;;;;;;2.13;1.77;;;26.10;66.40;;;;;;4976889;28;20042;-35
2022/07/04 12:14:23;;;;;;;2.28;1.42;;;26.20;58.30;;;;;;4954565;28;20042;-34
2022/07/04 12:16:48;;;;;;;2.10;1.67;;;25.90;58.80;;;;;;4973463;28;20030;-37
2022/07/04 12:19:14;;;;;;;1.90;1.80;;;25.70;66.20;;;;;;4974334;28;20038;-35
2022/07/04 12:21:43;;;;;;;1.92;1.60;;;25.70;63.30;;;;;;4973643;28;20601;-38
2022/07/04 12:24:08;;;;;;;1.55;1.45;;;25.80;61.50;;;;;;4974365;28;20030;-36
2022/07/04 12:26:43;;;;;;;1.63;1.52;;;25.70;60.30;;;;;;4973324;28;20353;-35
2022/07/04 12:29:09;;;;;;;3.08;1.75;;;25.60;62.00;;;;;;4973989;28;20035;-36
2022/07/04 12:31:44;;;;;;;1.63;1.52;;;25.50;66.00;;;;;;4967598;28;20510;-35
2022/07/04 12:34:16;;;;;;;4.40;1.88;;;25.10;59.80;;;;;;4970105;28;20023;-38
2022/07/04 12:36:56;;;;;;;3.05;1.80;;;25.10;63.40;;;;;;4968273;28;20034;-34
2022/07/04 12:39:31;;;;;;;2.95;1.77;;;25.20;63.10;;;;;;4972758;28;20055;-37
2022/07/04 12:42:15;;;;;;;1.60;1.50;;;25.20;65.10;;;;;;4975159;28;20046;-38
2022/07/04 12:44:42;;;;;;;3.65;1.90;;;25.30;65.30;;;;;;4967789;28;20019;-36
2022/07/04 12:47:09;;;;;;;1.75;1.60;;;25.30;63.20;;;;;;4972632;28;20262;-35
2022/07/04 12:49:34;;;;;;;1.88;1.77;;;25.40;62.70;;;;;;4971239;28;20043;-38
2022/07/04 12:52:14;;;;;;;1.65;1.55;;;25.60;66.00;;;;;;4972505;28;20269;-36
2022/07/04 12:54:40;;;;;;;1.60;1.50;;;25.80;65.60;;;;;;4977364;28;20396;-38
2022/07/04 12:57:14;;;;;;;2.78;1.83;;;25.90;62.80;;;;;;4967242;28;20053;-35
2022/07/04 12:59:41;;;;;;;1.67;1.58;;;25.70;60.60;;;;;;4971199;28;20037;-34
2022/07/04 13:02:09;;;;;;;2.22;1.83;;;25.20;58.50;;;;;;4974109;28;20034;-35
2022/07/04 13:04:35;;;;;;;2.85;1.90;;;25.00;62.20;;;;;;4973184;28;20038;-37
2022/07/04 13:07:15;;;;;;;2.17;1.98;;;25.00;64.90;;;;;;4973790;28;20070;-33